Time;durP1;ratioP1;P1;durP2;ratioP2;P2;SDS_P1;SDS_P2;PMS_P1;PMS_P2;Temp;Humidity;BMP_temperature;BMP_pressure;BME280_temperature;BME280_humidity;BME280_pressure;Samples;Min_cycle;Max_cycle;Signal;HPM_P1;HPM_P2
2024/03/23 00:01:47;;;;;;;9.57;8.68;;;12.40;99.90;;;;;;5079083;27;20743;-76
2024/03/23 00:04:17;;;;;;;8.88;7.97;;;12.40;99.90;;;;;;5083361;28;20224;-77
2024/03/23 00:06:48;;;;;;;8.52;7.72;;;12.30;99.90;;;;;;5086652;28;20666;-76
2024/03/23 00:09:17;;;;;;;8.98;8.07;;;12.20;99.90;;;;;;5088330;28;20221;-77
2024/03/23 00:11:48;;;;;;;8.95;8.05;;;12.20;99.90;;;;;;5087163;28;20234;-76
2024/03/23 00:14:17;;;;;;;8.38;7.57;;;12.10;99.90;;;;;;5089174;28;20244;-75
2024/03/23 00:16:48;;;;;;;9.60;8.02;;;12.10;99.90;;;;;;5084692;28;20229;-76
2024/03/23 00:19:18;;;;;;;10.25;9.25;;;12.00;99.90;;;;;;5084255;28;20250;-76
2024/03/23 00:21:48;;;;;;;9.43;8.52;;;12.00;99.90;;;;;;5085760;28;20237;-76
2024/03/23 00:24:18;;;;;;;9.02;8.13;;;11.90;99.90;;;;;;5089214;28;20254;-76
2024/03/23 00:26:49;;;;;;;8.82;8.02;;;11.90;99.90;;;;;;5090261;28;20686;-77
2024/03/23 00:29:19;;;;;;;9.20;8.30;;;11.90;99.90;;;;;;5085000;28;20230;-75
2024/03/23 00:31:50;;;;;;;10.10;7.93;;;11.80;99.90;;;;;;5080173;28;20228;-76
2024/03/23 00:34:19;;;;;;;9.43;8.52;;;11.80;99.90;;;;;;5084664;28;21007;-77
2024/03/23 00:36:50;;;;;;;10.02;9.02;;;11.70;99.90;;;;;;5083963;28;20261;-76
2024/03/23 00:39:19;;;;;;;8.70;7.85;;;11.60;99.90;;;;;;5080211;28;20592;-77
2024/03/23 00:41:50;;;;;;;8.40;7.32;;;11.50;99.90;;;;;;5082159;28;20269;-76
2024/03/23 00:44:20;;;;;;;8.52;7.68;;;11.40;99.90;;;;;;5084474;28;20240;-76
2024/03/23 00:46:50;;;;;;;8.27;7.47;;;11.40;99.90;;;;;;5084049;28;20221;-77
2024/03/23 00:49:20;;;;;;;7.97;7.25;;;11.40;99.90;;;;;;5085405;28;20298;-76
2024/03/23 00:51:50;;;;;;;8.90;8.00;;;11.30;99.90;;;;;;5077722;28;20917;-76
2024/03/23 00:54:18;;;;;;;8.63;7.72;;;11.20;99.90;;;;;;5082417;28;21224;-76
2024/03/23 00:56:44;;;;;;;6.72;6.13;;;11.10;99.90;;;;;;5082924;28;20255;-76
2024/03/23 00:59:11;;;;;;;7.90;7.20;;;11.10;99.90;;;;;;5083907;28;20225;-77
2024/03/23 01:01:38;;;;;;;7.75;6.90;;;11.10;99.90;;;;;;5082127;28;20221;-76
2024/03/23 01:04:04;;;;;;;8.40;7.57;;;11.10;99.90;;;;;;5080759;28;20590;-77
2024/03/23 01:06:31;;;;;;;7.10;6.50;;;11.10;99.90;;;;;;5083031;28;20227;-76
2024/03/23 01:08:57;;;;;;;6.65;6.05;;;11.10;99.90;;;;;;5082274;28;20315;-78
2024/03/23 01:11:26;;;;;;;7.50;6.78;;;11.10;99.90;;;;;;5085407;28;20383;-76
2024/03/23 01:13:55;;;;;;;7.93;7.13;;;11.10;99.90;;;;;;5082303;28;20221;-77
2024/03/23 01:16:22;;;;;;;9.38;8.43;;;11.00;99.90;;;;;;5083806;28;20209;-76
2024/03/23 01:18:48;;;;;;;7.70;7.00;;;10.90;99.90;;;;;;5083919;28;20245;-76
2024/03/23 01:21:15;;;;;;;7.57;6.88;;;10.90;99.90;;;;;;5082224;28;20233;-75
2024/03/23 01:23:42;;;;;;;7.65;6.95;;;10.90;99.90;;;;;;5082507;28;20760;-76
2024/03/23 01:26:09;;;;;;;8.07;7.28;;;10.90;99.90;;;;;;5087641;28;20208;-76
2024/03/23 01:28:36;;;;;;;6.95;6.25;;;10.90;99.90;;;;;;5082290;28;20263;-77
2024/03/23 01:31:03;;;;;;;7.72;6.63;;;10.90;99.90;;;;;;5083094;28;20804;-76
2024/03/23 01:33:29;;;;;;;6.82;6.15;;;11.00;99.90;;;;;;5080404;28;20329;-77
2024/03/23 01:35:56;;;;;;;6.55;5.95;;;10.90;99.90;;;;;;5080434;28;20233;-77
2024/03/23 01:38:22;;;;;;;6.10;5.50;;;11.00;99.90;;;;;;5080258;28;20302;-77
2024/03/23 01:40:49;;;;;;;6.70;6.10;;;10.90;99.90;;;;;;5084975;28;20214;-76
2024/03/23 01:43:15;;;;;;;8.05;6.57;;;11.00;99.90;;;;;;5086056;28;20262;-78
2024/03/23 01:45:43;;;;;;;7.13;6.43;;;10.90;99.90;;;;;;5085143;28;20240;-76
2024/03/23 01:48:12;;;;;;;8.02;6.00;;;10.90;99.90;;;;;;5089349;28;20217;-76
2024/03/23 01:50:39;;;;;;;9.02;7.15;;;10.90;99.90;;;;;;5087526;28;20300;-76
2024/03/23 01:53:06;;;;;;;7.57;6.45;;;10.90;99.90;;;;;;5084006;28;20266;-77
2024/03/23 01:55:33;;;;;;;7.57;6.85;;;10.90;99.90;;;;;;5085464;27;20274;-76
2024/03/23 01:57:59;;;;;;;7.35;6.65;;;10.80;99.90;;;;;;5086999;28;20253;-77
2024/03/23 02:00:27;;;;;;;7.10;6.40;;;10.80;99.90;;;;;;5088610;28;20248;-77
2024/03/23 02:02:55;;;;;;;8.60;7.07;;;10.80;99.90;;;;;;5085468;28;20231;-76
2024/03/23 02:05:23;;;;;;;6.68;6.07;;;10.70;99.90;;;;;;5084997;28;20228;-76
2024/03/23 02:07:49;;;;;;;7.05;6.35;;;10.70;99.90;;;;;;5079587;28;20271;-76
2024/03/23 02:10:16;;;;;;;7.25;6.55;;;10.70;99.90;;;;;;5081938;28;20248;-77
2024/03/23 02:12:42;;;;;;;9.02;8.13;;;10.70;99.90;;;;;;5086798;28;20248;-75
2024/03/23 02:15:09;;;;;;;8.02;6.95;;;10.70;99.90;;;;;;5085156;28;20244;-76
2024/03/23 02:17:36;;;;;;;7.85;7.15;;;10.70;99.90;;;;;;5085072;28;20292;-76
2024/03/23 02:20:06;;;;;;;6.97;6.13;;;10.70;99.90;;;;;;5084773;28;20758;-76
2024/03/23 02:22:37;;;;;;;7.40;6.70;;;10.70;99.90;;;;;;5081864;28;20241;-76
2024/03/23 02:25:06;;;;;;;7.45;6.65;;;10.60;99.90;;;;;;5085860;28;20209;-76
2024/03/23 02:27:33;;;;;;;7.05;6.38;;;10.50;99.90;;;;;;5085251;28;20241;-76
2024/03/23 02:30:00;;;;;;;7.72;6.97;;;10.50;99.90;;;;;;5082094;28;20329;-77
2024/03/23 02:32:26;;;;;;;7.90;7.13;;;10.50;99.90;;;;;;5082833;28;20935;-77
2024/03/23 02:34:53;;;;;;;7.35;6.65;;;10.50;99.90;;;;;;5087121;28;20297;-76
2024/03/23 02:37:18;;;;;;;8.02;7.25;;;10.40;99.90;;;;;;5086397;28;20859;-75
2024/03/23 02:39:45;;;;;;;8.40;7.55;;;10.40;99.90;;;;;;5084761;28;20252;-76
2024/03/23 02:42:13;;;;;;;7.30;6.60;;;10.40;99.90;;;;;;5088431;28;20263;-77
2024/03/23 02:44:39;;;;;;;7.78;6.93;;;10.40;99.90;;;;;;5082754;28;20483;-76
2024/03/23 02:47:06;;;;;;;7.45;6.75;;;10.40;99.90;;;;;;5088530;28;20283;-76
2024/03/23 02:49:33;;;;;;;7.47;6.75;;;10.40;99.90;;;;;;5081196;28;20590;-77
2024/03/23 02:51:59;;;;;;;7.78;7.03;;;10.40;99.90;;;;;;5085843;28;20274;-76
2024/03/23 02:54:26;;;;;;;7.18;6.47;;;10.30;99.90;;;;;;5086339;28;20206;-76
2024/03/23 02:56:52;;;;;;;8.07;7.00;;;10.30;99.90;;;;;;5089609;28;20711;-76
2024/03/23 02:59:20;;;;;;;8.10;7.20;;;10.30;99.90;;;;;;5089785;28;20275;-77
2024/03/23 03:01:46;;;;;;;7.88;7.07;;;10.20;99.90;;;;;;5085865;28;20209;-76
2024/03/23 03:04:13;;;;;;;8.68;7.75;;;10.20;99.90;;;;;;5087751;28;20275;-76
2024/03/23 03:06:39;;;;;;;7.70;6.90;;;10.20;99.90;;;;;;5097414;28;20244;-74
2024/03/23 03:09:06;;;;;;;7.40;6.70;;;10.20;99.90;;;;;;5089650;28;20241;-76
2024/03/23 03:11:33;;;;;;;9.40;8.05;;;10.10;99.90;;;;;;5087292;28;20225;-76
2024/03/23 03:14:00;;;;;;;7.53;6.82;;;10.10;99.90;;;;;;5089512;28;20221;-78
2024/03/23 03:16:27;;;;;;;7.95;7.15;;;10.10;99.90;;;;;;5090445;28;20259;-77
2024/03/23 03:18:54;;;;;;;7.68;6.90;;;10.10;99.90;;;;;;5090998;28;20225;-75
2024/03/23 03:21:20;;;;;;;7.53;6.72;;;10.10;99.90;;;;;;5091795;28;20221;-76
2024/03/23 03:23:50;;;;;;;8.65;7.75;;;10.00;99.90;;;;;;5089453;28;20214;-77
2024/03/23 03:26:16;;;;;;;8.70;7.55;;;10.00;99.90;;;;;;5088414;28;20221;-77
2024/03/23 03:28:43;;;;;;;7.97;7.18;;;10.00;99.90;;;;;;5086756;28;20211;-77
2024/03/23 03:31:09;;;;;;;7.38;6.68;;;10.00;99.90;;;;;;5085523;28;20698;-77
2024/03/23 03:33:38;;;;;;;7.18;6.47;;;10.00;99.90;;;;;;5090965;28;20213;-74
2024/03/23 03:36:04;;;;;;;7.00;6.40;;;10.00;99.90;;;;;;5089155;28;20214;-77
2024/03/23 03:38:31;;;;;;;7.28;6.57;;;10.00;99.90;;;;;;5091797;28;20607;-77
2024/03/23 03:40:58;;;;;;;7.97;7.18;;;9.90;99.90;;;;;;5092815;28;20197;-76
2024/03/23 03:43:25;;;;;;;7.82;7.03;;;9.90;99.90;;;;;;5091736;28;20205;-75
2024/03/23 03:45:52;;;;;;;7.35;6.65;;;9.90;99.90;;;;;;5095857;28;20217;-77
2024/03/23 03:48:19;;;;;;;6.32;5.72;;;10.00;99.90;;;;;;5092077;28;20218;-77
2024/03/23 03:50:46;;;;;;;6.97;6.28;;;10.00;99.90;;;;;;5106078;28;20594;-74
2024/03/23 03:53:13;;;;;;;6.75;6.15;;;10.10;99.90;;;;;;5090943;28;20209;-74
2024/03/23 03:55:39;;;;;;;6.53;5.93;;;10.10;99.90;;;;;;5091627;28;20209;-74
2024/03/23 03:58:06;;;;;;;6.20;5.68;;;10.20;99.90;;;;;;5093682;28;20753;-75
2024/03/23 04:00:32;;;;;;;6.25;5.72;;;10.20;99.90;;;;;;5084693;28;20305;-77
2024/03/23 04:02:59;;;;;;;6.80;6.15;;;10.20;99.90;;;;;;5089911;28;20547;-76
2024/03/23 04:05:25;;;;;;;7.15;6.45;;;10.20;99.90;;;;;;5091691;28;20209;-77
2024/03/23 04:07:53;;;;;;;7.03;6.40;;;10.20;99.90;;;;;;5092101;28;20213;-76
2024/03/23 04:10:20;;;;;;;6.30;5.72;;;10.20;99.90;;;;;;5089576;28;20225;-76
2024/03/23 04:12:47;;;;;;;6.20;5.68;;;10.20;99.90;;;;;;5090426;28;20707;-76
2024/03/23 04:15:13;;;;;;;6.40;5.80;;;10.20;99.90;;;;;;5087144;28;20217;-76
2024/03/23 04:17:42;;;;;;;6.00;5.50;;;10.20;99.90;;;;;;5085854;28;20716;-75
2024/03/23 04:20:11;;;;;;;7.00;6.40;;;10.20;99.90;;;;;;5089549;28;20226;-77
2024/03/23 04:22:37;;;;;;;6.63;6.03;;;10.10;99.90;;;;;;5088325;28;20797;-75
2024/03/23 04:25:06;;;;;;;6.22;5.63;;;10.10;99.90;;;;;;5088427;28;20225;-76
2024/03/23 04:27:33;;;;;;;6.30;5.70;;;10.10;99.90;;;;;;5087754;28;20217;-75
2024/03/23 04:30:00;;;;;;;5.80;5.30;;;10.10;99.90;;;;;;5089977;28;20233;-75
2024/03/23 04:32:28;;;;;;;7.65;6.95;;;10.10;99.90;;;;;;5088753;28;20756;-75
2024/03/23 04:34:56;;;;;;;7.45;6.70;;;10.10;99.90;;;;;;5089591;28;20707;-75
2024/03/23 04:37:23;;;;;;;8.25;7.25;;;10.00;99.90;;;;;;5087990;28;20765;-74
2024/03/23 04:39:50;;;;;;;7.10;6.50;;;10.10;99.90;;;;;;5087271;28;20230;-74
2024/03/23 04:42:18;;;;;;;6.10;5.60;;;10.00;99.90;;;;;;5080592;28;20309;-75
2024/03/23 04:44:45;;;;;;;5.82;5.32;;;10.00;99.90;;;;;;5090262;28;20776;-74
2024/03/23 04:47:12;;;;;;;6.68;6.07;;;10.10;99.90;;;;;;5093549;28;20774;-74
2024/03/23 04:49:39;;;;;;;6.97;6.38;;;10.00;99.90;;;;;;5086955;28;20267;-77
2024/03/23 04:52:07;;;;;;;7.38;6.68;;;10.00;99.90;;;;;;5089453;28;20222;-74
2024/03/23 04:54:34;;;;;;;7.95;7.15;;;10.00;99.90;;;;;;5091002;28;20236;-77
2024/03/23 04:57:00;;;;;;;7.38;6.68;;;9.90;99.90;;;;;;5087697;28;20225;-77
2024/03/23 04:59:28;;;;;;;7.32;6.63;;;9.90;99.90;;;;;;5086044;28;20222;-74
2024/03/23 05:01:55;;;;;;;6.90;6.30;;;9.90;99.90;;;;;;5084683;28;20274;-77
2024/03/23 05:04:21;;;;;;;7.28;6.57;;;9.90;99.90;;;;;;5089347;28;20213;-78
2024/03/23 05:06:48;;;;;;;8.25;7.45;;;9.90;99.90;;;;;;5088645;28;20270;-77
2024/03/23 05:09:13;;;;;;;7.88;7.15;;;9.90;99.90;;;;;;5087595;28;20217;-77
2024/03/23 05:11:41;;;;;;;7.05;6.35;;;9.90;99.90;;;;;;5086936;28;20209;-76
2024/03/23 05:14:07;;;;;;;8.40;7.47;;;9.80;99.90;;;;;;5081727;28;20247;-78
2024/03/23 05:16:35;;;;;;;8.68;7.88;;;9.80;99.90;;;;;;5087802;28;20296;-79
2024/03/23 05:19:01;;;;;;;8.32;7.53;;;9.80;99.90;;;;;;5086795;28;20295;-76
2024/03/23 05:21:29;;;;;;;7.95;7.22;;;9.80;99.90;;;;;;5088426;28;20261;-77
2024/03/23 05:23:58;;;;;;;7.70;7.03;;;9.80;99.90;;;;;;5093189;28;20274;-76
2024/03/23 05:26:25;;;;;;;6.88;6.20;;;9.80;99.90;;;;;;5086051;28;20219;-75
2024/03/23 05:28:51;;;;;;;7.45;6.75;;;9.80;99.90;;;;;;5088091;28;20257;-76
2024/03/23 05:31:24;;;;;;;8.40;7.07;;;9.80;99.90;;;;;;5086226;28;20241;-76
2024/03/23 05:33:52;;;;;;;7.07;6.47;;;9.80;99.90;;;;;;5088457;28;20290;-77
2024/03/23 05:36:19;;;;;;;8.05;7.25;;;9.80;99.90;;;;;;5087585;27;20213;-76
2024/03/23 05:38:45;;;;;;;9.70;7.88;;;9.80;99.90;;;;;;5088675;28;20275;-76
2024/03/23 05:41:12;;;;;;;8.02;7.22;;;9.80;99.90;;;;;;5088993;28;20662;-74
2024/03/23 05:43:38;;;;;;;8.05;7.35;;;9.80;99.90;;;;;;5086171;28;20205;-77
2024/03/23 05:46:05;;;;;;;8.02;7.25;;;9.90;99.90;;;;;;5083122;27;20228;-74
2024/03/23 05:48:32;;;;;;;6.93;6.18;;;10.00;99.90;;;;;;5084889;28;20655;-74
2024/03/23 05:51:00;;;;;;;7.82;7.13;;;10.00;99.90;;;;;;5082602;28;20287;-75
2024/03/23 05:53:28;;;;;;;7.50;6.80;;;10.10;99.90;;;;;;5087017;28;20271;-75
2024/03/23 05:56:04;;;;;;;8.52;7.68;;;10.20;99.90;;;;;;5084474;28;20224;-73
2024/03/23 05:58:31;;;;;;;7.72;7.03;;;10.30;99.90;;;;;;5086852;28;20228;-75
2024/03/23 06:01:02;;;;;;;7.90;6.75;;;10.60;99.90;;;;;;5085272;28;20383;-78
2024/03/23 06:03:28;;;;;;;8.05;7.28;;;11.00;99.90;;;;;;5086105;28;20221;-77
2024/03/23 06:05:56;;;;;;;10.77;8.60;;;11.30;99.90;;;;;;5087220;28;20695;-77
2024/03/23 06:08:24;;;;;;;8.50;7.70;;;11.60;99.90;;;;;;5084002;28;20228;-76
2024/03/23 06:10:51;;;;;;;8.20;7.40;;;11.80;99.90;;;;;;5084148;28;20254;-79
2024/03/23 06:13:17;;;;;;;8.13;7.30;;;11.90;99.90;;;;;;5085834;28;20235;-77
2024/03/23 06:15:46;;;;;;;7.32;6.47;;;12.10;99.90;;;;;;5083294;28;20210;-77
2024/03/23 06:18:12;;;;;;;7.32;6.63;;;12.20;99.90;;;;;;5082937;28;20217;-77
2024/03/23 06:20:39;;;;;;;7.30;6.60;;;12.20;99.90;;;;;;5089802;28;20216;-77
2024/03/23 06:23:05;;;;;;;7.75;6.95;;;12.10;99.90;;;;;;5089123;28;20229;-77
2024/03/23 06:25:33;;;;;;;8.63;7.80;;;12.10;99.90;;;;;;5086479;28;20217;-77
2024/03/23 06:28:01;;;;;;;7.43;6.68;;;12.20;99.90;;;;;;5091311;28;20245;-76
2024/03/23 06:30:29;;;;;;;6.00;5.50;;;12.50;99.90;;;;;;5090315;27;20723;-77
2024/03/23 06:32:55;;;;;;;7.93;6.15;;;12.80;99.90;;;;;;5091490;28;20224;-77
2024/03/23 06:35:22;;;;;;;7.60;6.90;;;13.20;99.90;;;;;;5090800;28;20235;-77
2024/03/23 06:37:48;;;;;;;7.25;6.63;;;13.40;99.90;;;;;;5090057;28;20737;-78
2024/03/23 06:40:15;;;;;;;7.78;6.97;;;13.70;99.90;;;;;;5088509;28;20221;-76
2024/03/23 06:42:42;;;;;;;7.30;6.60;;;13.80;99.90;;;;;;5090264;28;20247;-74
2024/03/23 06:45:10;;;;;;;7.55;6.85;;;13.80;99.90;;;;;;5087819;28;20721;-77
2024/03/23 06:47:36;;;;;;;6.95;6.25;;;14.00;99.90;;;;;;5090524;28;20259;-79
2024/03/23 06:50:04;;;;;;;7.38;6.63;;;14.20;99.90;;;;;;5093917;28;20267;-77
2024/03/23 06:52:30;;;;;;;7.35;6.65;;;14.30;99.90;;;;;;5090009;28;20680;-77
2024/03/23 06:54:58;;;;;;;7.15;6.43;;;14.00;99.90;;;;;;5084982;28;20241;-76
2024/03/23 06:57:24;;;;;;;7.85;7.05;;;13.70;99.90;;;;;;5091815;28;20315;-77
2024/03/23 06:59:52;;;;;;;8.63;6.30;;;13.50;99.90;;;;;;5088025;28;20241;-77
2024/03/23 07:02:18;;;;;;;6.78;6.18;;;13.20;99.90;;;;;;5088543;28;20700;-77
2024/03/23 07:04:45;;;;;;;6.88;6.25;;;13.00;99.90;;;;;;5090657;28;20245;-77
2024/03/23 07:07:12;;;;;;;6.32;5.82;;;12.90;99.90;;;;;;5093114;28;20683;-77
2024/03/23 07:09:39;;;;;;;6.32;5.78;;;12.80;99.90;;;;;;5087898;28;20225;-74
2024/03/23 07:12:05;;;;;;;6.72;6.13;;;12.60;99.90;;;;;;5090929;28;20221;-76
2024/03/23 07:14:32;;;;;;;6.38;5.63;;;12.50;99.90;;;;;;5087554;28;20334;-74
2024/03/23 07:16:59;;;;;;;7.35;6.75;;;12.30;99.90;;;;;;5089922;28;20241;-74
2024/03/23 07:19:27;;;;;;;6.68;6.07;;;12.10;99.90;;;;;;5091510;28;20225;-74
2024/03/23 07:21:53;;;;;;;6.80;6.20;;;12.00;99.90;;;;;;5088076;28;20297;-78
2024/03/23 07:24:20;;;;;;;7.55;6.85;;;12.00;99.90;;;;;;5088030;28;20300;-74
2024/03/23 07:26:47;;;;;;;6.75;6.15;;;12.00;99.90;;;;;;5093366;27;20221;-75
2024/03/23 07:29:14;;;;;;;6.35;5.75;;;12.00;99.90;;;;;;5088345;28;20695;-75
2024/03/23 07:31:41;;;;;;;5.53;5.03;;;11.90;99.90;;;;;;5085855;28;20303;-77
2024/03/23 07:34:09;;;;;;;5.57;5.07;;;11.80;99.90;;;;;;5083263;28;20632;-77
2024/03/23 07:36:35;;;;;;;5.15;4.75;;;11.90;99.90;;;;;;5083309;28;20259;-74
2024/03/23 07:39:03;;;;;;;5.20;4.70;;;11.90;99.90;;;;;;5087543;28;20241;-74
2024/03/23 07:41:30;;;;;;;4.97;4.50;;;12.00;99.90;;;;;;5087634;28;20220;-75
2024/03/23 07:43:57;;;;;;;5.53;5.03;;;12.00;99.90;;;;;;5089200;28;20221;-76
2024/03/23 07:46:25;;;;;;;4.90;4.50;;;12.10;99.90;;;;;;5084534;28;20923;-75
2024/03/23 07:48:52;;;;;;;4.53;4.20;;;12.10;99.90;;;;;;5084191;28;20217;-76
2024/03/23 07:51:22;;;;;;;6.18;5.32;;;12.20;99.90;;;;;;5088044;28;20250;-74
2024/03/23 07:53:49;;;;;;;8.02;5.57;;;12.30;99.90;;;;;;5091061;28;20306;-76
2024/03/23 07:56:17;;;;;;;5.85;5.35;;;12.50;99.90;;;;;;5086857;28;20593;-75
2024/03/23 07:58:45;;;;;;;6.80;6.07;;;12.60;99.90;;;;;;5077507;28;20313;-77
2024/03/23 08:01:12;;;;;;;6.13;5.63;;;12.70;99.90;;;;;;5086241;28;20236;-77
2024/03/23 08:03:40;;;;;;;5.93;5.43;;;12.80;99.90;;;;;;5087031;28;20770;-77
2024/03/23 08:06:10;;;;;;;6.55;5.80;;;12.80;99.90;;;;;;5084415;28;20276;-78
2024/03/23 08:08:38;;;;;;;7.30;6.55;;;12.80;99.90;;;;;;5081773;28;20539;-74
2024/03/23 08:11:05;;;;;;;7.57;5.75;;;12.70;99.90;;;;;;5080033;28;20871;-77
2024/03/23 08:13:33;;;;;;;5.70;5.10;;;12.70;99.90;;;;;;5077721;28;20270;-78
2024/03/23 08:15:59;;;;;;;5.45;4.95;;;12.80;99.90;;;;;;5079003;28;20333;-78
2024/03/23 08:18:26;;;;;;;5.40;4.70;;;13.10;99.90;;;;;;5079674;28;20272;-75
2024/03/23 08:20:57;;;;;;;4.28;3.88;;;13.60;99.90;;;;;;5083090;28;20275;-78
2024/03/23 08:23:24;;;;;;;4.70;4.28;;;13.90;99.90;;;;;;5082118;28;20223;-78
2024/03/23 08:25:52;;;;;;;4.82;4.38;;;14.10;99.90;;;;;;5081086;28;20248;-75
2024/03/23 08:28:18;;;;;;;4.78;4.28;;;14.30;99.90;;;;;;5081810;28;20237;-76
2024/03/23 08:30:45;;;;;;;5.10;4.60;;;14.50;99.90;;;;;;5080892;28;20319;-77
2024/03/23 08:33:11;;;;;;;4.97;4.47;;;14.80;99.90;;;;;;5085628;28;20253;-78
2024/03/23 08:35:38;;;;;;;4.90;4.43;;;14.90;99.90;;;;;;5080557;28;20236;-77
2024/03/23 08:38:04;;;;;;;6.90;4.85;;;14.90;99.90;;;;;;5082905;28;20244;-77
2024/03/23 08:40:31;;;;;;;5.68;5.18;;;14.60;99.90;;;;;;5084364;28;20220;-76
2024/03/23 08:42:58;;;;;;;7.07;6.00;;;14.40;99.90;;;;;;5080609;27;20245;-78
2024/03/23 08:45:25;;;;;;;6.15;5.55;;;14.40;99.90;;;;;;5079330;28;20307;-77
2024/03/23 08:47:52;;;;;;;6.00;5.50;;;14.40;99.90;;;;;;5081004;28;20221;-78
2024/03/23 08:50:19;;;;;;;5.88;5.28;;;14.40;99.90;;;;;;5082399;28;21690;-77
2024/03/23 08:52:45;;;;;;;6.32;5.70;;;14.30;99.90;;;;;;5080454;28;20257;-76
2024/03/23 08:55:11;;;;;;;6.10;5.47;;;14.30;99.90;;;;;;5080825;28;20299;-79
2024/03/23 08:57:37;;;;;;;7.68;6.38;;;14.60;99.90;;;;;;5082472;28;20774;-78
2024/03/23 09:00:08;;;;;;;6.72;5.75;;;14.90;99.90;;;;;;5081512;28;20249;-76
2024/03/23 09:02:35;;;;;;;5.93;5.43;;;15.40;99.90;;;;;;5086681;28;20217;-76
2024/03/23 09:05:04;;;;;;;6.45;5.15;;;15.70;99.90;;;;;;5080430;28;20209;-77
2024/03/23 09:07:30;;;;;;;7.15;5.47;;;15.60;99.90;;;;;;5083397;28;20222;-77
2024/03/23 09:09:57;;;;;;;5.53;4.70;;;15.40;99.90;;;;;;5079631;28;20282;-77
2024/03/23 09:12:23;;;;;;;5.72;5.18;;;15.20;99.90;;;;;;5082554;28;20241;-77
2024/03/23 09:14:50;;;;;;;5.53;5.10;;;15.10;99.90;;;;;;5079843;28;20222;-76
2024/03/23 09:17:18;;;;;;;6.18;5.43;;;14.90;99.90;;;;;;5079744;28;20236;-76
2024/03/23 09:19:45;;;;;;;5.72;5.10;;;14.70;99.90;;;;;;5082823;28;20638;-77
2024/03/23 09:22:11;;;;;;;6.70;5.22;;;14.50;99.90;;;;;;5085482;28;20253;-77
2024/03/23 09:24:39;;;;;;;6.20;5.47;;;14.30;99.90;;;;;;5083101;28;20625;-76
2024/03/23 09:27:05;;;;;;;5.43;4.93;;;14.20;99.90;;;;;;5080965;28;20823;-77
2024/03/23 09:29:32;;;;;;;7.53;5.53;;;14.10;99.90;;;;;;5082370;28;20658;-76
2024/03/23 09:31:58;;;;;;;6.32;5.72;;;14.10;99.90;;;;;;5078014;28;20241;-76
2024/03/23 09:34:26;;;;;;;5.38;4.88;;;14.10;99.90;;;;;;5079956;28;20397;-77
2024/03/23 09:36:52;;;;;;;6.63;5.70;;;14.10;99.90;;;;;;5085634;28;20260;-76
2024/03/23 09:39:19;;;;;;;5.53;5.03;;;14.10;99.90;;;;;;5081832;28;20217;-76
2024/03/23 09:41:45;;;;;;;6.35;5.72;;;14.20;99.90;;;;;;5079856;28;20213;-77
2024/03/23 09:44:13;;;;;;;6.72;5.60;;;14.20;99.90;;;;;;5079805;28;20225;-76
2024/03/23 09:46:39;;;;;;;6.65;6.05;;;14.30;99.90;;;;;;5080579;28;20291;-76
2024/03/23 09:49:08;;;;;;;6.60;5.55;;;14.30;99.90;;;;;;5081460;28;20222;-77
2024/03/23 09:51:37;;;;;;;6.70;5.93;;;14.40;99.90;;;;;;5078921;28;20599;-77
2024/03/23 09:54:04;;;;;;;6.35;5.68;;;14.50;99.90;;;;;;5082031;28;20248;-76
2024/03/23 09:56:30;;;;;;;5.20;4.70;;;14.40;99.90;;;;;;5079643;28;20278;-77
2024/03/23 09:59:02;;;;;;;6.18;5.40;;;14.50;99.90;;;;;;5080790;28;20680;-77
2024/03/23 10:01:30;;;;;;;9.27;6.10;;;14.70;99.90;;;;;;5075794;28;20239;-77
2024/03/23 10:03:57;;;;;;;7.13;5.60;;;14.90;99.90;;;;;;5083311;28;20248;-77
2024/03/23 10:06:24;;;;;;;7.15;6.20;;;15.00;99.90;;;;;;5085497;28;20224;-77
2024/03/23 10:08:54;;;;;;;6.40;5.60;;;15.00;99.90;;;;;;5087663;28;20347;-77
2024/03/23 10:11:21;;;;;;;6.03;5.25;;;14.70;99.90;;;;;;5089712;28;20224;-77
2024/03/23 10:13:48;;;;;;;7.05;5.70;;;14.60;99.90;;;;;;5083080;28;20224;-75
2024/03/23 10:16:22;;;;;;;7.60;6.70;;;14.50;99.90;;;;;;5084043;28;20240;-77
2024/03/23 10:18:49;;;;;;;6.40;5.47;;;14.40;99.90;;;;;;5084564;28;20297;-77
2024/03/23 10:21:16;;;;;;;6.10;5.60;;;14.30;99.90;;;;;;5082444;28;20668;-77
2024/03/23 10:23:44;;;;;;;7.20;5.97;;;14.40;99.90;;;;;;5085330;28;20244;-76
2024/03/23 10:26:21;;;;;;;6.22;5.63;;;14.70;99.90;;;;;;5089278;28;20225;-77
2024/03/23 10:28:54;;;;;;;6.97;6.28;;;15.30;99.90;;;;;;5081138;28;20270;-76
2024/03/23 10:31:22;;;;;;;10.57;6.78;;;16.10;99.90;;;;;;5082720;28;20308;-76
2024/03/23 10:33:48;;;;;;;7.47;6.63;;;16.70;99.90;;;;;;5085318;28;20431;-77
2024/03/23 10:36:15;;;;;;;12.35;7.47;;;17.00;99.90;;;;;;5083158;28;20214;-76
2024/03/23 10:38:42;;;;;;;6.90;6.20;;;17.50;99.90;;;;;;5089080;28;20221;-77
2024/03/23 10:41:10;;;;;;;8.68;7.43;;;17.60;99.90;;;;;;5089855;28;20200;-76
2024/03/23 10:43:38;;;;;;;7.45;6.63;;;18.10;99.90;;;;;;5084806;28;20267;-77
2024/03/23 10:46:06;;;;;;;8.68;6.93;;;18.50;99.90;;;;;;5081543;28;20221;-76
2024/03/23 10:48:32;;;;;;;6.93;6.10;;;18.50;99.90;;;;;;5083779;28;20209;-76
2024/03/23 10:50:59;;;;;;;7.47;6.80;;;18.60;99.90;;;;;;5086463;28;20574;-77
2024/03/23 10:53:27;;;;;;;8.38;7.00;;;18.70;99.90;;;;;;5085722;28;20286;-77
2024/03/23 10:55:55;;;;;;;8.43;7.57;;;18.80;99.90;;;;;;5081891;28;20215;-77
2024/03/23 10:58:27;;;;;;;7.30;6.60;;;18.90;99.90;;;;;;5084716;28;20221;-77
2024/03/23 11:00:55;;;;;;;8.55;7.55;;;19.10;99.90;;;;;;5084699;28;20218;-77
2024/03/23 11:03:31;;;;;;;10.07;7.88;;;19.20;99.90;;;;;;5082002;28;20675;-77
2024/03/23 11:05:59;;;;;;;8.57;7.78;;;19.40;99.90;;;;;;5081532;28;20296;-78
2024/03/23 11:08:35;;;;;;;7.43;6.57;;;19.40;99.90;;;;;;5079187;28;20313;-78
2024/03/23 11:11:31;;;;;;;9.05;8.15;;;19.50;99.90;;;;;;5080491;28;20205;-77
2024/03/23 11:13:59;;;;;;;8.52;7.78;;;19.30;99.90;;;;;;5048607;28;20225;-77
2024/03/23 11:16:31;;;;;;;8.93;8.10;;;19.30;99.90;;;;;;5078528;28;20323;-78
2024/03/23 11:19:36;;;;;;;8.57;7.68;;;19.30;99.90;;;;;;5066437;28;20867;-75
2024/03/23 11:22:04;;;;;;;9.02;8.13;;;19.40;99.90;;;;;;5084627;28;20209;-77
2024/03/23 11:24:31;;;;;;;8.68;7.78;;;19.50;99.90;;;;;;5084046;28;20298;-77
2024/03/23 11:27:00;;;;;;;8.43;7.63;;;19.50;99.90;;;;;;5082378;28;20252;-76
2024/03/23 11:29:26;;;;;;;10.45;8.48;;;19.50;99.90;;;;;;5079793;28;20225;-76
2024/03/23 11:31:54;;;;;;;11.23;9.00;;;19.80;99.90;;;;;;5083964;28;20307;-75
2024/03/23 11:34:21;;;;;;;9.65;8.75;;;19.90;99.90;;;;;;5083917;28;20700;-76
2024/03/23 11:36:50;;;;;;;10.57;9.32;;;20.00;99.90;;;;;;5074166;27;20516;-76
2024/03/23 11:39:17;;;;;;;10.50;8.88;;;19.90;99.90;;;;;;5079007;28;20318;-77
2024/03/23 11:41:48;;;;;;;9.68;8.77;;;20.20;99.90;;;;;;5072295;27;20221;-75
2024/03/23 11:44:18;;;;;;;9.70;8.75;;;20.20;99.90;;;;;;5077303;28;20302;-75
2024/03/23 11:46:45;;;;;;;9.45;8.48;;;19.90;99.90;;;;;;5081470;28;20593;-76
2024/03/23 11:49:23;;;;;;;9.55;8.55;;;19.50;99.90;;;;;;5081513;28;20249;-76
2024/03/23 11:51:50;;;;;;;9.20;8.30;;;19.20;99.90;;;;;;5077946;28;20235;-76
2024/03/23 11:54:16;;;;;;;9.15;8.25;;;19.40;99.90;;;;;;5078489;28;20301;-75
2024/03/23 11:56:55;;;;;;;8.77;7.95;;;19.70;99.90;;;;;;5083995;28;20217;-76
2024/03/23 11:59:31;;;;;;;10.82;9.65;;;20.20;99.90;;;;;;5077323;28;20257;-76
2024/03/23 12:01:59;;;;;;;9.80;8.80;;;20.50;99.90;;;;;;5080016;28;21804;-77
2024/03/23 12:04:27;;;;;;;10.50;8.80;;;20.40;99.90;;;;;;5076661;28;20825;-77
2024/03/23 12:07:15;;;;;;;11.52;9.32;;;20.10;99.90;;;;;;5073904;28;20230;-75
2024/03/23 12:09:42;;;;;;;9.35;8.43;;;19.80;99.90;;;;;;5080852;28;21965;-75
2024/03/23 12:12:11;;;;;;;10.27;8.38;;;19.50;99.90;;;;;;5080902;28;20229;-76
2024/03/23 12:14:37;;;;;;;8.55;7.57;;;19.00;99.90;;;;;;5079025;28;20729;-77
2024/03/23 12:17:12;;;;;;;11.82;9.20;;;18.70;99.90;;;;;;5078634;28;20209;-78
2024/03/23 12:19:41;;;;;;;9.77;8.77;;;18.30;99.90;;;;;;5078563;28;20224;-76
2024/03/23 12:22:08;;;;;;;9.75;8.77;;;17.90;99.90;;;;;;5076098;28;20859;-76
2024/03/23 12:24:34;;;;;;;9.98;8.35;;;18.00;99.90;;;;;;5075933;28;20224;-75
2024/03/23 12:27:02;;;;;;;9.82;8.80;;;18.30;99.90;;;;;;5073635;28;20237;-76
2024/03/23 12:29:32;;;;;;;12.93;10.30;;;18.50;99.90;;;;;;5080934;28;20257;-75
2024/03/23 12:32:01;;;;;;;12.98;10.07;;;18.50;99.90;;;;;;5076549;28;20930;-76
2024/03/23 12:34:27;;;;;;;11.23;9.77;;;18.60;99.90;;;;;;5071702;28;21760;-77
2024/03/23 12:36:55;;;;;;;9.90;8.82;;;18.70;99.90;;;;;;5064709;27;20209;-76
2024/03/23 12:39:21;;;;;;;9.88;8.65;;;18.90;99.90;;;;;;5083498;28;20283;-77
2024/03/23 12:41:48;;;;;;;12.77;10.57;;;19.40;99.90;;;;;;5080458;28;20587;-75
2024/03/23 12:44:15;;;;;;;9.55;8.50;;;19.70;99.90;;;;;;5078562;28;20747;-78
2024/03/23 12:46:42;;;;;;;10.90;8.13;;;19.90;99.90;;;;;;5076522;28;20205;-76
2024/03/23 12:49:08;;;;;;;10.73;9.60;;;20.20;99.90;;;;;;5077174;28;20290;-75
2024/03/23 12:51:35;;;;;;;10.10;9.10;;;20.30;99.90;;;;;;5078120;28;21048;-77